sensor_id;sensor_type;location;lat;lon;timestamp;pressure;altitude;pressure_sealevel;temperature;humidity
75414;BME280;64758;52.122;5.404;2024-01-25T00:00:08;102955.53;;;7.68;99.41
75414;BME280;64758;52.122;5.404;2024-01-25T00:02:35;102955.63;;;7.67;99.68
75414;BME280;64758;52.122;5.404;2024-01-25T00:05:01;102958.53;;;7.64;99.90
75414;BME280;64758;52.122;5.404;2024-01-25T00:07:28;102959.38;;;7.64;99.99
75414;BME280;64758;52.122;5.404;2024-01-25T00:09:55;102955.50;;;7.57;100.00
75414;BME280;64758;52.122;5.404;2024-01-25T00:12:24;102955.72;;;7.54;100.00
75414;BME280;64758;52.122;5.404;2024-01-25T00:14:50;102964.03;;;7.50;100.00
75414;BME280;64758;52.122;5.404;2024-01-25T00:17:19;102957.88;;;7.50;100.00
75414;BME280;64758;52.122;5.404;2024-01-25T00:19:45;102969.03;;;7.42;100.00
75414;BME280;64758;52.122;5.404;2024-01-25T00:22:12;102962.78;;;7.43;100.00
75414;BME280;64758;52.122;5.404;2024-01-25T00:24:39;102956.66;;;7.43;100.00
75414;BME280;64758;52.122;5.404;2024-01-25T00:27:05;102959.88;;;7.35;100.00
75414;BME280;64758;52.122;5.404;2024-01-25T00:29:34;102962.00;;;7.30;100.00
75414;BME280;64758;52.122;5.404;2024-01-25T00:32:00;102961.38;;;7.27;100.00
75414;BME280;64758;52.122;5.404;2024-01-25T00:34:27;102955.38;;;7.25;100.00
75414;BME280;64758;52.122;5.404;2024-01-25T00:36:54;102959.09;;;7.22;100.00
75414;BME280;64758;52.122;5.404;2024-01-25T00:39:21;102952.22;;;7.20;100.00
75414;BME280;64758;52.122;5.404;2024-01-25T00:41:50;102964.69;;;7.18;100.00
75414;BME280;64758;52.122;5.404;2024-01-25T00:44:17;102966.59;;;7.16;100.00
75414;BME280;64758;52.122;5.404;2024-01-25T00:46:44;102959.13;;;7.10;100.00
75414;BME280;64758;52.122;5.404;2024-01-25T00:49:13;102969.91;;;7.07;100.00
75414;BME280;64758;52.122;5.404;2024-01-25T00:51:46;102967.28;;;7.07;100.00
75414;BME280;64758;52.122;5.404;2024-01-25T00:54:14;102979.03;;;7.03;100.00
75414;BME280;64758;52.122;5.404;2024-01-25T00:56:41;102984.44;;;7.01;100.00
75414;BME280;64758;52.122;5.404;2024-01-25T00:59:08;102979.47;;;6.97;100.00
75414;BME280;64758;52.122;5.404;2024-01-25T01:01:35;102964.91;;;6.91;100.00
75414;BME280;64758;52.122;5.404;2024-01-25T01:04:02;102986.88;;;6.92;100.00
75414;BME280;64758;52.122;5.404;2024-01-25T01:06:29;102989.88;;;6.87;100.00
75414;BME280;64758;52.122;5.404;2024-01-25T01:08:56;102993.56;;;6.85;100.00
75414;BME280;64758;52.122;5.404;2024-01-25T01:11:22;102991.25;;;6.80;100.00
75414;BME280;64758;52.122;5.404;2024-01-25T01:13:49;102990.59;;;6.77;100.00
75414;BME280;64758;52.122;5.404;2024-01-25T01:16:15;102989.25;;;6.71;100.00
75414;BME280;64758;52.122;5.404;2024-01-25T01:18:42;103002.69;;;6.68;100.00
75414;BME280;64758;52.122;5.404;2024-01-25T01:21:09;103003.94;;;6.63;100.00
75414;BME280;64758;52.122;5.404;2024-01-25T01:23:35;103005.13;;;6.59;100.00
75414;BME280;64758;52.122;5.404;2024-01-25T01:26:04;103007.88;;;6.57;100.00
75414;BME280;64758;52.122;5.404;2024-01-25T01:28:31;103010.59;;;6.56;100.00
75414;BME280;64758;52.122;5.404;2024-01-25T01:30:57;103009.88;;;6.54;100.00
75414;BME280;64758;52.122;5.404;2024-01-25T01:33:24;103007.44;;;6.51;100.00
75414;BME280;64758;52.122;5.404;2024-01-25T01:35:50;103012.94;;;6.48;100.00
75414;BME280;64758;52.122;5.404;2024-01-25T01:38:17;103020.97;;;6.46;100.00
75414;BME280;64758;52.122;5.404;2024-01-25T01:40:44;103013.34;;;6.42;100.00
75414;BME280;64758;52.122;5.404;2024-01-25T01:43:19;103017.06;;;6.39;100.00
75414;BME280;64758;52.122;5.404;2024-01-25T01:45:46;103013.16;;;6.32;100.00
75414;BME280;64758;52.122;5.404;2024-01-25T01:48:13;103013.50;;;6.28;100.00
75414;BME280;64758;52.122;5.404;2024-01-25T01:50:44;103019.19;;;6.22;100.00
75414;BME280;64758;52.122;5.404;2024-01-25T01:53:12;103022.03;;;6.19;100.00
75414;BME280;64758;52.122;5.404;2024-01-25T01:55:39;103024.97;;;6.15;100.00
75414;BME280;64758;52.122;5.404;2024-01-25T01:58:06;103019.91;;;6.12;100.00
75414;BME280;64758;52.122;5.404;2024-01-25T02:00:33;103025.41;;;6.09;100.00
75414;BME280;64758;52.122;5.404;2024-01-25T02:03:00;103028.34;;;6.04;100.00
75414;BME280;64758;52.122;5.404;2024-01-25T02:05:28;103032.88;;;6.02;100.00
75414;BME280;64758;52.122;5.404;2024-01-25T02:07:55;103035.72;;;5.99;100.00
75414;BME280;64758;52.122;5.404;2024-01-25T02:10:21;103037.63;;;5.97;100.00
75414;BME280;64758;52.122;5.404;2024-01-25T02:12:48;103042.25;;;5.94;100.00
75414;BME280;64758;52.122;5.404;2024-01-25T02:15:15;103039.00;;;5.90;100.00
75414;BME280;64758;52.122;5.404;2024-01-25T02:17:42;103047.09;;;5.87;100.00
75414;BME280;64758;52.122;5.404;2024-01-25T02:20:09;103063.88;;;5.86;100.00
75414;BME280;64758;52.122;5.404;2024-01-25T02:22:36;103054.47;;;5.82;100.00
75414;BME280;64758;52.122;5.404;2024-01-25T02:25:03;103074.63;;;5.83;100.00
75414;BME280;64758;52.122;5.404;2024-01-25T02:27:30;103067.84;;;5.79;100.00
75414;BME280;64758;52.122;5.404;2024-01-25T02:29:56;103067.94;;;5.78;100.00
75414;BME280;64758;52.122;5.404;2024-01-25T02:32:23;103071.69;;;5.74;100.00
75414;BME280;64758;52.122;5.404;2024-01-25T02:34:49;103066.75;;;5.69;100.00
75414;BME280;64758;52.122;5.404;2024-01-25T02:37:17;103066.81;;;5.68;100.00
75414;BME280;64758;52.122;5.404;2024-01-25T02:39:43;103064.38;;;5.65;100.00
75414;BME280;64758;52.122;5.404;2024-01-25T02:42:10;103069.97;;;5.60;100.00
75414;BME280;64758;52.122;5.404;2024-01-25T02:44:37;103077.13;;;5.58;100.00
75414;BME280;64758;52.122;5.404;2024-01-25T02:47:03;103073.75;;;5.56;100.00
75414;BME280;64758;52.122;5.404;2024-01-25T02:49:30;103071.41;;;5.52;100.00
75414;BME280;64758;52.122;5.404;2024-01-25T02:51:57;103070.56;;;5.51;100.00
75414;BME280;64758;52.122;5.404;2024-01-25T02:54:23;103074.53;;;5.44;100.00
75414;BME280;64758;52.122;5.404;2024-01-25T02:56:50;103083.97;;;5.34;100.00
75414;BME280;64758;52.122;5.404;2024-01-25T02:59:17;103074.03;;;5.25;100.00
75414;BME280;64758;52.122;5.404;2024-01-25T03:01:44;103082.00;;;5.24;100.00
75414;BME280;64758;52.122;5.404;2024-01-25T03:04:11;103086.44;;;5.23;100.00
75414;BME280;64758;52.122;5.404;2024-01-25T03:06:38;103089.53;;;5.16;100.00
75414;BME280;64758;52.122;5.404;2024-01-25T03:09:05;103080.38;;;5.09;100.00
75414;BME280;64758;52.122;5.404;2024-01-25T03:11:31;103079.63;;;5.07;100.00
75414;BME280;64758;52.122;5.404;2024-01-25T03:13:58;103075.94;;;4.96;100.00
75414;BME280;64758;52.122;5.404;2024-01-25T03:16:25;103085.53;;;4.83;100.00
75414;BME280;64758;52.122;5.404;2024-01-25T03:18:52;103080.09;;;4.72;100.00
75414;BME280;64758;52.122;5.404;2024-01-25T03:21:19;103084.78;;;4.67;100.00
75414;BME280;64758;52.122;5.404;2024-01-25T03:23:45;103091.09;;;4.64;100.00
75414;BME280;64758;52.122;5.404;2024-01-25T03:26:12;103090.91;;;4.67;100.00
75414;BME280;64758;52.122;5.404;2024-01-25T03:28:38;103087.53;;;4.65;100.00
75414;BME280;64758;52.122;5.404;2024-01-25T03:31:06;103097.13;;;4.66;100.00
75414;BME280;64758;52.122;5.404;2024-01-25T03:33:33;103087.72;;;4.62;100.00
75414;BME280;64758;52.122;5.404;2024-01-25T03:36:04;103091.91;;;4.51;100.00
75414;BME280;64758;52.122;5.404;2024-01-25T03:38:31;103104.31;;;4.49;100.00
75414;BME280;64758;52.122;5.404;2024-01-25T03:40:58;103084.47;;;4.29;100.00
75414;BME280;64758;52.122;5.404;2024-01-25T03:43:25;103085.81;;;4.07;100.00
75414;BME280;64758;52.122;5.404;2024-01-25T03:45:58;103083.13;;;3.93;100.00
75414;BME280;64758;52.122;5.404;2024-01-25T03:48:25;103082.44;;;3.75;100.00
75414;BME280;64758;52.122;5.404;2024-01-25T03:50:52;103070.41;;;3.72;100.00
75414;BME280;64758;52.122;5.404;2024-01-25T03:53:23;103078.56;;;3.67;100.00
75414;BME280;64758;52.122;5.404;2024-01-25T03:55:49;103070.28;;;3.59;100.00
75414;BME280;64758;52.122;5.404;2024-01-25T03:58:19;103077.47;;;3.56;100.00
75414;BME280;64758;52.122;5.404;2024-01-25T04:00:46;103076.88;;;3.51;100.00
75414;BME280;64758;52.122;5.404;2024-01-25T04:03:13;103081.72;;;3.58;100.00
75414;BME280;64758;52.122;5.404;2024-01-25T04:05:40;103099.34;;;3.56;100.00
75414;BME280;64758;52.122;5.404;2024-01-25T04:08:07;103086.84;;;3.60;100.00
75414;BME280;64758;52.122;5.404;2024-01-25T04:10:34;103091.53;;;3.70;100.00
75414;BME280;64758;52.122;5.404;2024-01-25T04:13:00;103077.44;;;3.71;100.00
75414;BME280;64758;52.122;5.404;2024-01-25T04:15:28;103077.28;;;3.74;100.00
75414;BME280;64758;52.122;5.404;2024-01-25T04:17:55;103074.81;;;3.71;100.00
75414;BME280;64758;52.122;5.404;2024-01-25T04:20:22;103080.44;;;3.65;100.00
75414;BME280;64758;52.122;5.404;2024-01-25T04:22:49;103074.59;;;3.60;100.00
75414;BME280;64758;52.122;5.404;2024-01-25T04:25:16;103082.41;;;3.46;100.00
75414;BME280;64758;52.122;5.404;2024-01-25T04:27:42;103081.53;;;3.46;100.00
75414;BME280;64758;52.122;5.404;2024-01-25T04:30:09;103080.78;;;3.44;100.00
75414;BME280;64758;52.122;5.404;2024-01-25T04:32:36;103078.06;;;3.45;100.00
75414;BME280;64758;52.122;5.404;2024-01-25T04:35:03;103087.63;;;3.31;100.00
75414;BME280;64758;52.122;5.404;2024-01-25T04:37:30;103086.88;;;3.13;100.00
75414;BME280;64758;52.122;5.404;2024-01-25T04:39:57;103092.13;;;3.13;100.00
75414;BME280;64758;52.122;5.404;2024-01-25T04:42:23;103090.78;;;3.06;100.00
75414;BME280;64758;52.122;5.404;2024-01-25T04:44:50;103091.88;;;3.02;100.00
75414;BME280;64758;52.122;5.404;2024-01-25T04:47:16;103097.00;;;3.04;100.00
75414;BME280;64758;52.122;5.404;2024-01-25T04:49:43;103090.66;;;2.92;100.00
75414;BME280;64758;52.122;5.404;2024-01-25T04:52:10;103092.97;;;2.98;100.00
75414;BME280;64758;52.122;5.404;2024-01-25T04:54:36;103094.00;;;3.11;100.00
75414;BME280;64758;52.122;5.404;2024-01-25T04:57:03;103094.59;;;3.16;100.00
75414;BME280;64758;52.122;5.404;2024-01-25T04:59:33;103094.66;;;3.15;100.00
75414;BME280;64758;52.122;5.404;2024-01-25T05:02:00;103095.09;;;3.07;100.00
75414;BME280;64758;52.122;5.404;2024-01-25T05:04:28;103091.28;;;2.97;100.00
75414;BME280;64758;52.122;5.404;2024-01-25T05:06:55;103089.06;;;3.05;100.00
75414;BME280;64758;52.122;5.404;2024-01-25T05:09:22;103096.69;;;3.10;100.00
75414;BME280;64758;52.122;5.404;2024-01-25T05:11:49;103099.66;;;3.19;100.00
75414;BME280;64758;52.122;5.404;2024-01-25T05:14:17;103110.06;;;3.21;100.00
75414;BME280;64758;52.122;5.404;2024-01-25T05:16:43;103096.34;;;3.16;100.00
75414;BME280;64758;52.122;5.404;2024-01-25T05:19:10;103098.47;;;3.09;100.00
75414;BME280;64758;52.122;5.404;2024-01-25T05:21:37;103102.31;;;3.19;100.00
75414;BME280;64758;52.122;5.404;2024-01-25T05:24:04;103103.50;;;3.29;100.00
75414;BME280;64758;52.122;5.404;2024-01-25T05:26:31;103120.78;;;3.33;100.00
75414;BME280;64758;52.122;5.404;2024-01-25T05:28:58;103116.28;;;3.35;100.00
75414;BME280;64758;52.122;5.404;2024-01-25T05:31:24;103110.88;;;3.38;100.00
75414;BME280;64758;52.122;5.404;2024-01-25T05:33:51;103107.31;;;3.39;100.00
75414;BME280;64758;52.122;5.404;2024-01-25T05:36:17;103108.25;;;3.38;100.00
75414;BME280;64758;52.122;5.404;2024-01-25T05:38:44;103116.72;;;3.43;100.00
75414;BME280;64758;52.122;5.404;2024-01-25T05:41:11;103118.13;;;3.49;100.00
75414;BME280;64758;52.122;5.404;2024-01-25T05:43:37;103117.03;;;3.53;100.00
75414;BME280;64758;52.122;5.404;2024-01-25T05:46:04;103118.56;;;3.57;100.00
75414;BME280;64758;52.122;5.404;2024-01-25T05:48:31;103120.25;;;3.58;100.00
75414;BME280;64758;52.122;5.404;2024-01-25T05:50:57;103118.97;;;3.65;100.00
75414;BME280;64758;52.122;5.404;2024-01-25T05:53:24;103117.81;;;3.70;100.00
75414;BME280;64758;52.122;5.404;2024-01-25T05:55:51;103116.94;;;3.70;100.00
75414;BME280;64758;52.122;5.404;2024-01-25T05:58:18;103113.66;;;3.66;100.00
75414;BME280;64758;52.122;5.404;2024-01-25T06:00:45;103113.47;;;3.69;100.00
75414;BME280;64758;52.122;5.404;2024-01-25T06:03:12;103107.88;;;3.75;100.00
75414;BME280;64758;52.122;5.404;2024-01-25T06:05:38;103111.44;;;3.74;100.00
75414;BME280;64758;52.122;5.404;2024-01-25T06:08:05;103123.81;;;3.72;100.00
75414;BME280;64758;52.122;5.404;2024-01-25T06:10:32;103126.50;;;3.71;100.00
75414;BME280;64758;52.122;5.404;2024-01-25T06:12:59;103128.03;;;3.74;100.00
75414;BME280;64758;52.122;5.404;2024-01-25T06:15:26;103133.06;;;3.79;100.00
75414;BME280;64758;52.122;5.404;2024-01-25T06:17:53;103135.56;;;3.80;100.00
75414;BME280;64758;52.122;5.404;2024-01-25T06:20:19;103130.41;;;3.79;100.00
75414;BME280;64758;52.122;5.404;2024-01-25T06:22:46;103117.28;;;3.79;100.00
75414;BME280;64758;52.122;5.404;2024-01-25T06:25:13;103128.78;;;3.76;100.00
75414;BME280;64758;52.122;5.404;2024-01-25T06:27:40;103119.03;;;3.78;100.00
75414;BME280;64758;52.122;5.404;2024-01-25T06:30:07;103132.13;;;3.80;100.00
75414;BME280;64758;52.122;5.404;2024-01-25T06:32:33;103136.50;;;3.79;100.00
75414;BME280;64758;52.122;5.404;2024-01-25T06:35:00;103132.88;;;3.82;100.00
75414;BME280;64758;52.122;5.404;2024-01-25T06:37:27;103131.06;;;3.82;100.00
75414;BME280;64758;52.122;5.404;2024-01-25T06:39:54;103140.00;;;3.80;100.00
75414;BME280;64758;52.122;5.404;2024-01-25T06:42:20;103139.78;;;3.83;100.00
75414;BME280;64758;52.122;5.404;2024-01-25T06:44:48;103135.50;;;3.82;100.00
75414;BME280;64758;52.122;5.404;2024-01-25T06:47:14;103139.63;;;3.86;100.00
75414;BME280;64758;52.122;5.404;2024-01-25T06:49:41;103138.03;;;3.83;100.00
75414;BME280;64758;52.122;5.404;2024-01-25T06:52:08;103135.31;;;3.85;100.00
75414;BME280;64758;52.122;5.404;2024-01-25T06:54:34;103142.25;;;3.86;100.00
75414;BME280;64758;52.122;5.404;2024-01-25T06:57:01;103152.75;;;3.86;100.00
75414;BME280;64758;52.122;5.404;2024-01-25T06:59:28;103140.66;;;3.83;100.00
75414;BME280;64758;52.122;5.404;2024-01-25T07:01:56;103140.66;;;3.83;100.00
75414;BME280;64758;52.122;5.404;2024-01-25T07:04:23;103143.28;;;3.83;100.00
75414;BME280;64758;52.122;5.404;2024-01-25T07:06:50;103142.41;;;3.83;100.00
75414;BME280;64758;52.122;5.404;2024-01-25T07:09:17;103147.50;;;3.86;100.00
75414;BME280;64758;52.122;5.404;2024-01-25T07:11:43;103145.75;;;3.86;100.00
75414;BME280;64758;52.122;5.404;2024-01-25T07:14:10;103145.75;;;3.86;100.00
75414;BME280;64758;52.122;5.404;2024-01-25T07:16:37;103148.38;;;3.86;100.00
75414;BME280;64758;52.122;5.404;2024-01-25T07:19:04;103143.19;;;3.85;100.00
75414;BME280;64758;52.122;5.404;2024-01-25T07:21:31;103145.81;;;3.85;100.00
75414;BME280;64758;52.122;5.404;2024-01-25T07:24:00;103145.81;;;3.85;100.00
75414;BME280;64758;52.122;5.404;2024-01-25T07:26:27;103152.75;;;3.86;100.00
75414;BME280;64758;52.122;5.404;2024-01-25T07:28:54;103161.41;;;3.88;100.00
75414;BME280;64758;52.122;5.404;2024-01-25T07:31:25;103152.41;;;3.92;100.00
75414;BME280;64758;52.122;5.404;2024-01-25T07:33:53;103147.75;;;3.97;100.00
75414;BME280;64758;52.122;5.404;2024-01-25T07:36:20;103144.19;;;3.98;100.00
75414;BME280;64758;52.122;5.404;2024-01-25T07:38:48;103139.69;;;4.00;100.00
75414;BME280;64758;52.122;5.404;2024-01-25T07:41:15;103141.38;;;4.01;100.00
75414;BME280;64758;52.122;5.404;2024-01-25T07:43:42;103135.34;;;3.99;100.00
75414;BME280;64758;52.122;5.404;2024-01-25T07:46:09;103134.44;;;4.00;100.00
75414;BME280;64758;52.122;5.404;2024-01-25T07:48:37;103144.75;;;4.03;100.00
75414;BME280;64758;52.122;5.404;2024-01-25T07:51:10;103139.34;;;4.06;100.00
75414;BME280;64758;52.122;5.404;2024-01-25T07:53:39;103133.06;;;4.08;100.00
75414;BME280;64758;52.122;5.404;2024-01-25T07:56:08;103134.66;;;4.11;100.00
75414;BME280;64758;52.122;5.404;2024-01-25T07:58:36;103140.59;;;4.14;100.00
75414;BME280;64758;52.122;5.404;2024-01-25T08:01:04;103139.50;;;4.18;100.00
75414;BME280;64758;52.122;5.404;2024-01-25T08:03:32;103142.88;;;4.20;100.00
75414;BME280;64758;52.122;5.404;2024-01-25T08:06:01;103140.25;;;4.20;100.00
75414;BME280;64758;52.122;5.404;2024-01-25T08:08:29;103150.47;;;4.25;100.00
75414;BME280;64758;52.122;5.404;2024-01-25T08:10:56;103152.28;;;4.24;100.00
75414;BME280;64758;52.122;5.404;2024-01-25T08:13:22;103159.13;;;4.27;100.00
75414;BME280;64758;52.122;5.404;2024-01-25T08:15:50;103150.31;;;4.28;100.00
75414;BME280;64758;52.122;5.404;2024-01-25T08:18:17;103157.09;;;4.32;100.00
75414;BME280;64758;52.122;5.404;2024-01-25T08:20:45;103156.91;;;4.35;100.00
75414;BME280;64758;52.122;5.404;2024-01-25T08:23:13;103162.09;;;4.36;100.00
75414;BME280;64758;52.122;5.404;2024-01-25T08:25:41;103178.44;;;4.41;100.00
75414;BME280;64758;52.122;5.404;2024-01-25T08:28:08;103168.88;;;4.40;100.00
75414;BME280;64758;52.122;5.404;2024-01-25T08:30:35;103170.38;;;4.44;100.00
75414;BME280;64758;52.122;5.404;2024-01-25T08:33:01;103170.19;;;4.47;100.00
75414;BME280;64758;52.122;5.404;2024-01-25T08:35:29;103172.66;;;4.50;100.00
75414;BME280;64758;52.122;5.404;2024-01-25T08:37:57;103163.81;;;4.51;100.00
75414;BME280;64758;52.122;5.404;2024-01-25T08:40:23;103156.88;;;4.50;100.00
75414;BME280;64758;52.122;5.404;2024-01-25T08:42:52;103163.63;;;4.54;100.00
75414;BME280;64758;52.122;5.404;2024-01-25T08:45:18;103159.88;;;4.58;100.00
75414;BME280;64758;52.122;5.404;2024-01-25T08:47:45;103167.50;;;4.63;100.00
75414;BME280;64758;52.122;5.404;2024-01-25T08:50:12;103160.28;;;4.66;100.00
75414;BME280;64758;52.122;5.404;2024-01-25T08:52:40;103165.19;;;4.72;100.00
75414;BME280;64758;52.122;5.404;2024-01-25T08:55:07;103182.38;;;4.78;100.00
75414;BME280;64758;52.122;5.404;2024-01-25T08:57:36;103173.19;;;4.85;100.00
75414;BME280;64758;52.122;5.404;2024-01-25T09:00:03;103174.59;;;4.90;100.00
75414;BME280;64758;52.122;5.404;2024-01-25T09:02:38;103170.56;;;4.98;100.00
75414;BME280;64758;52.122;5.404;2024-01-25T09:05:05;103169.34;;;5.04;100.00
75414;BME280;64758;52.122;5.404;2024-01-25T09:07:32;103173.38;;;5.09;100.00
75414;BME280;64758;52.122;5.404;2024-01-25T09:09:59;103180.34;;;5.10;100.00
75414;BME280;64758;52.122;5.404;2024-01-25T09:12:26;103172.13;;;5.15;100.00
75414;BME280;64758;52.122;5.404;2024-01-25T09:14:53;103170.94;;;5.20;100.00
75414;BME280;64758;52.122;5.404;2024-01-25T09:17:19;103167.16;;;5.24;100.00
75414;BME280;64758;52.122;5.404;2024-01-25T09:19:49;103184.19;;;5.33;100.00
75414;BME280;64758;52.122;5.404;2024-01-25T09:22:19;103189.06;;;5.39;100.00
75414;BME280;64758;52.122;5.404;2024-01-25T09:24:46;103175.44;;;5.46;100.00
75414;BME280;64758;52.122;5.404;2024-01-25T09:27:14;103191.41;;;5.57;100.00
75414;BME280;64758;52.122;5.404;2024-01-25T09:29:41;103184.81;;;5.64;100.00
75414;BME280;64758;52.122;5.404;2024-01-25T09:32:09;103183.28;;;5.74;100.00
75414;BME280;64758;52.122;5.404;2024-01-25T09:34:37;103174.16;;;5.80;100.00
75414;BME280;64758;52.122;5.404;2024-01-25T09:37:06;103166.38;;;5.78;100.00
75414;BME280;64758;52.122;5.404;2024-01-25T09:39:33;103150.22;;;5.83;100.00
75414;BME280;64758;52.122;5.404;2024-01-25T09:42:05;103150.97;;;5.85;100.00
75414;BME280;64758;52.122;5.404;2024-01-25T09:44:32;103163.75;;;5.91;100.00
75414;BME280;64758;52.122;5.404;2024-01-25T09:47:03;103164.97;;;5.99;100.00
75414;BME280;64758;52.122;5.404;2024-01-25T09:49:32;103174.19;;;6.06;100.00
75414;BME280;64758;52.122;5.404;2024-01-25T09:52:01;103176.31;;;6.14;100.00
75414;BME280;64758;52.122;5.404;2024-01-25T09:54:39;103176.66;;;6.22;100.00
75414;BME280;64758;52.122;5.404;2024-01-25T09:57:12;103168.53;;;6.25;100.00
75414;BME280;64758;52.122;5.404;2024-01-25T09:59:41;103167.72;;;6.36;100.00
75414;BME280;64758;52.122;5.404;2024-01-25T10:02:09;103158.13;;;6.48;100.00
75414;BME280;64758;52.122;5.404;2024-01-25T10:04:37;103141.13;;;6.52;100.00
75414;BME280;64758;52.122;5.404;2024-01-25T10:07:04;103131.22;;;6.55;100.00
75414;BME280;64758;52.122;5.404;2024-01-25T10:09:38;103135.97;;;6.63;100.00
75414;BME280;64758;52.122;5.404;2024-01-25T10:12:06;103134.81;;;6.67;100.00
75414;BME280;64758;52.122;5.404;2024-01-25T10:14:44;103144.72;;;6.76;100.00
75414;BME280;64758;52.122;5.404;2024-01-25T10:17:10;103148.03;;;6.79;100.00
75414;BME280;64758;52.122;5.404;2024-01-25T10:19:37;103160.59;;;6.88;100.00
75414;BME280;64758;52.122;5.404;2024-01-25T10:22:06;103148.66;;;6.95;100.00
75414;BME280;64758;52.122;5.404;2024-01-25T10:24:36;103143.25;;;6.97;100.00
75414;BME280;64758;52.122;5.404;2024-01-25T10:27:03;103152.97;;;7.09;100.00
75414;BME280;64758;52.122;5.404;2024-01-25T10:29:30;103148.84;;;7.17;100.00
75414;BME280;64758;52.122;5.404;2024-01-25T10:31:56;103143.22;;;7.22;100.00
75414;BME280;64758;52.122;5.404;2024-01-25T10:34:25;103133.38;;;7.24;100.00
75414;BME280;64758;52.122;5.404;2024-01-25T10:36:52;103135.38;;;7.33;100.00
75414;BME280;64758;52.122;5.404;2024-01-25T10:39:21;103143.09;;;7.36;100.00
75414;BME280;64758;52.122;5.404;2024-01-25T10:41:48;103129.66;;;7.39;100.00
75414;BME280;64758;52.122;5.404;2024-01-25T10:44:18;103128.41;;;7.44;100.00
75414;BME280;64758;52.122;5.404;2024-01-25T10:46:48;103140.66;;;7.45;100.00
75414;BME280;64758;52.122;5.404;2024-01-25T10:49:16;103146.69;;;7.47;100.00
75414;BME280;64758;52.122;5.404;2024-01-25T10:51:44;103134.50;;;7.45;100.00
75414;BME280;64758;52.122;5.404;2024-01-25T10:54:12;103126.25;;;7.49;100.00
75414;BME280;64758;52.122;5.404;2024-01-25T10:56:46;103132.06;;;7.54;100.00
75414;BME280;64758;52.122;5.404;2024-01-25T10:59:13;103129.59;;;7.63;100.00
75414;BME280;64758;52.122;5.404;2024-01-25T11:01:44;103112.31;;;7.70;100.00
75414;BME280;64758;52.122;5.404;2024-01-25T11:04:12;103117.88;;;7.78;100.00
75414;BME280;64758;52.122;5.404;2024-01-25T11:06:40;103128.25;;;7.81;100.00
75414;BME280;64758;52.122;5.404;2024-01-25T11:09:07;103099.00;;;7.83;100.00
75414;BME280;64758;52.122;5.404;2024-01-25T11:11:35;103083.66;;;7.88;100.00
75414;BME280;64758;52.122;5.404;2024-01-25T11:14:03;103077.91;;;7.94;100.00
75414;BME280;64758;52.122;5.404;2024-01-25T11:16:31;103084.38;;;7.90;100.00
75414;BME280;64758;52.122;5.404;2024-01-25T11:19:01;103077.31;;;7.90;100.00
75414;BME280;64758;52.122;5.404;2024-01-25T11:21:50;103076.22;;;7.93;100.00
75414;BME280;64758;52.122;5.404;2024-01-25T11:24:22;103090.31;;;7.93;100.00
75414;BME280;64758;52.122;5.404;2024-01-25T11:26:50;103083.91;;;7.96;100.00
75414;BME280;64758;52.122;5.404;2024-01-25T11:29:18;103086.34;;;7.99;100.00
75414;BME280;64758;52.122;5.404;2024-01-25T11:31:45;103086.47;;;7.97;100.00
75414;BME280;64758;52.122;5.404;2024-01-25T11:34:13;103081.91;;;7.99;100.00
75414;BME280;64758;52.122;5.404;2024-01-25T11:36:42;103068.91;;;7.96;100.00
75414;BME280;64758;52.122;5.404;2024-01-25T11:39:10;103050.38;;;7.96;100.00
75414;BME280;64758;52.122;5.404;2024-01-25T11:41:38;103055.78;;;7.95;100.00
75414;BME280;64758;52.122;5.404;2024-01-25T11:44:05;103063.63;;;7.96;100.00
75414;BME280;64758;52.122;5.404;2024-01-25T11:46:31;103050.75;;;8.03;100.00
75414;BME280;64758;52.122;5.404;2024-01-25T11:49:03;103045.94;;;8.08;100.00
75414;BME280;64758;52.122;5.404;2024-01-25T11:51:29;103042.00;;;8.13;100.00
75414;BME280;64758;52.122;5.404;2024-01-25T11:53:56;103042.00;;;8.13;100.00
75414;BME280;64758;52.122;5.404;2024-01-25T11:56:28;103031.44;;;8.13;100.00
75414;BME280;64758;52.122;5.404;2024-01-25T11:58:57;103017.97;;;8.16;100.00
75414;BME280;64758;52.122;5.404;2024-01-25T12:01:25;103027.88;;;8.25;100.00
75414;BME280;64758;52.122;5.404;2024-01-25T12:03:53;103018.75;;;8.29;100.00
75414;BME280;64758;52.122;5.404;2024-01-25T12:06:20;103019.06;;;8.25;100.00
75414;BME280;64758;52.122;5.404;2024-01-25T12:08:47;103027.50;;;8.30;100.00
75414;BME280;64758;52.122;5.404;2024-01-25T12:11:18;103019.94;;;8.25;100.00
75414;BME280;64758;52.122;5.404;2024-01-25T12:13:45;103022.34;;;8.28;100.00
75414;BME280;64758;52.122;5.404;2024-01-25T12:16:12;103007.28;;;8.29;100.00
75414;BME280;64758;52.122;5.404;2024-01-25T12:18:41;103011.28;;;8.34;100.00
75414;BME280;64758;52.122;5.404;2024-01-25T12:21:08;103003.81;;;8.39;100.00
75414;BME280;64758;52.122;5.404;2024-01-25T12:23:38;103004.66;;;8.40;100.00
75414;BME280;64758;52.122;5.404;2024-01-25T12:26:07;102997.34;;;8.43;100.00
75414;BME280;64758;52.122;5.404;2024-01-25T12:28:35;102999.50;;;8.49;100.00
75414;BME280;64758;52.122;5.404;2024-01-25T12:31:03;103000.94;;;8.53;100.00
75414;BME280;64758;52.122;5.404;2024-01-25T12:33:31;103003.13;;;8.59;100.00
75414;BME280;64758;52.122;5.404;2024-01-25T12:35:58;102994.94;;;8.62;100.00
75414;BME280;64758;52.122;5.404;2024-01-25T12:38:25;102994.22;;;8.71;100.00
75414;BME280;64758;52.122;5.404;2024-01-25T12:40:52;102990.69;;;8.71;100.00
75414;BME280;64758;52.122;5.404;2024-01-25T12:43:19;102984.44;;;8.72;100.00
75414;BME280;64758;52.122;5.404;2024-01-25T12:45:48;102982.41;;;8.75;100.00
75414;BME280;64758;52.122;5.404;2024-01-25T12:48:17;102987.09;;;8.72;100.00
75414;BME280;64758;52.122;5.404;2024-01-25T12:50:44;102980.72;;;8.74;100.00